Time;durP1;ratioP1;P1;durP2;ratioP2;P2;SDS_P1;SDS_P2;PMS_P1;PMS_P2;Temp;Humidity;BMP_temperature;BMP_pressure;BME280_temperature;BME280_humidity;BME280_pressure;Samples;Min_cycle;Max_cycle;Signal;HPM_P1;HPM_P2
2023/05/12 00:00:01;;;;;;;3.60;2.40;;;;;;;;;;5058112;28;20053;-81
2023/05/12 00:02:27;;;;;;;3.80;2.58;;;;;;;;;;5056922;28;20021;-81
2023/05/12 00:04:52;;;;;;;5.13;2.67;;;;;;;;;;5039194;28;20436;-80
2023/05/12 00:07:17;;;;;;;4.82;2.55;;;;;;;;;;5056616;28;20104;-80
2023/05/12 00:09:42;;;;;;;3.75;2.60;;;;;;;;;;5056686;28;20036;-80
2023/05/12 00:12:08;;;;;;;3.10;2.23;;;;;;;;;;5057315;28;20052;-80
2023/05/12 00:14:36;;;;;;;4.57;2.47;;;;;;;;;;5056803;28;20269;-81
2023/05/12 00:17:05;;;;;;;5.80;2.53;;;;;;;;;;5056812;28;20025;-81
2023/05/12 00:19:32;;;;;;;5.38;2.47;;;;;;;;;;5056459;28;20025;-81
2023/05/12 00:21:57;;;;;;;3.83;2.33;;;;;;;;;;5056235;28;20021;-79
2023/05/12 00:24:22;;;;;;;3.43;2.23;;;;;;;;;;5057443;28;20131;-79
2023/05/12 00:26:47;;;;;;;3.60;2.50;;;;;;;;;;5056865;28;20308;-80
2023/05/12 00:29:13;;;;;;;4.55;2.40;;;;;;;;;;5056139;28;20348;-80
2023/05/12 00:31:38;;;;;;;6.10;2.70;;;;;;;;;;5057099;28;20025;-81
2023/05/12 00:34:03;;;;;;;3.93;2.50;;;;;;;;;;5039188;28;20028;-81
2023/05/12 00:36:29;;;;;;;4.72;2.63;;;;;;;;;;5056744;28;20289;-81
2023/05/12 00:38:55;;;;;;;5.22;2.22;;;;;;;;;;5039605;28;20029;-80
2023/05/12 00:41:20;;;;;;;6.57;2.58;;;;;;;;;;5057119;28;20488;-80
2023/05/12 00:43:45;;;;;;;3.17;2.42;;;;;;;;;;5039193;28;20025;-81
2023/05/12 00:46:11;;;;;;;3.72;2.92;;;;;;;;;;5057095;28;20054;-80
2023/05/12 00:48:36;;;;;;;6.15;2.38;;;;;;;;;;5056068;28;20031;-79
2023/05/12 00:51:03;;;;;;;5.63;2.42;;;;;;;;;;5057195;28;20530;-80
2023/05/12 00:53:30;;;;;;;4.88;2.70;;;;;;;;;;5056366;28;20021;-80
2023/05/12 00:55:56;;;;;;;6.25;2.72;;;;;;;;;;5056297;28;20053;-81
2023/05/12 00:58:22;;;;;;;8.55;2.88;;;;;;;;;;5056106;28;20032;-80
2023/05/12 01:00:47;;;;;;;5.30;3.00;;;;;;;;;;5056391;28;20036;-80
2023/05/12 01:03:12;;;;;;;4.33;2.80;;;;;;;;;;5056673;28;20154;-80
2023/05/12 01:05:49;;;;;;;11.97;2.73;;;;;;;;;;5056893;28;20290;-80
2023/05/12 01:08:16;;;;;;;4.85;2.53;;;;;;;;;;5038744;28;20312;-79
2023/05/12 01:10:46;;;;;;;3.08;2.50;;;;;;;;;;5038649;28;20091;-80
2023/05/12 01:13:11;;;;;;;8.48;2.90;;;;;;;;;;5056204;28;20025;-81
2023/05/12 01:15:41;;;;;;;3.95;2.28;;;;;;;;;;5038181;28;20121;-81
2023/05/12 01:18:08;;;;;;;7.95;3.00;;;;;;;;;;5037579;28;20079;-79
2023/05/12 01:20:34;;;;;;;4.05;2.60;;;;;;;;;;5038536;28;20032;-82
2023/05/12 01:23:00;;;;;;;3.58;2.53;;;;;;;;;;5055898;28;20400;-81
2023/05/12 01:25:29;;;;;;;4.00;2.50;;;;;;;;;;5056106;28;20024;-81
2023/05/12 01:27:55;;;;;;;6.88;2.45;;;;;;;;;;5037578;28;20078;-80
2023/05/12 01:30:22;;;;;;;7.05;2.65;;;;;;;;;;5055949;28;20029;-81
2023/05/12 01:32:47;;;;;;;5.05;2.50;;;;;;;;;;5055434;28;20067;-80
2023/05/12 01:35:13;;;;;;;6.13;2.70;;;;;;;;;;5055910;28;20392;-80
2023/05/12 01:37:38;;;;;;;4.28;2.70;;;;;;;;;;5055925;28;20111;-81
2023/05/12 01:40:04;;;;;;;4.85;2.70;;;;;;;;;;5037475;28;20369;-82
2023/05/12 01:42:29;;;;;;;5.03;2.88;;;;;;;;;;5037281;28;20017;-81
2023/05/12 01:44:54;;;;;;;3.83;2.70;;;;;;;;;;5055499;28;20468;-81
2023/05/12 01:47:20;;;;;;;4.07;2.67;;;;;;;;;;5055342;28;20607;-80
2023/05/12 01:49:45;;;;;;;8.10;2.80;;;;;;;;;;5055167;28;20304;-80
2023/05/12 01:52:11;;;;;;;4.55;2.80;;;;;;;;;;5054764;28;20064;-82
2023/05/12 01:54:36;;;;;;;3.33;2.50;;;;;;;;;;5055220;28;20439;-79
2023/05/12 01:57:01;;;;;;;4.23;2.90;;;;;;;;;;5054852;28;20323;-81
2023/05/12 01:59:26;;;;;;;5.85;2.90;;;;;;;;;;5054801;28;20250;-82
2023/05/12 02:01:51;;;;;;;4.90;2.67;;;;;;;;;;5036643;28;20036;-82
2023/05/12 02:04:17;;;;;;;5.67;3.00;;;;;;;;;;5055111;28;20266;-82
2023/05/12 02:06:42;;;;;;;3.17;2.50;;;;;;;;;;5054722;28;20356;-81
2023/05/12 02:09:07;;;;;;;3.93;2.83;;;;;;;;;;5054133;28;20262;-81
2023/05/12 02:11:32;;;;;;;6.03;2.70;;;;;;;;;;5056923;28;20249;-80
2023/05/12 02:13:57;;;;;;;4.93;2.70;;;;;;;;;;5057401;28;20256;-80
2023/05/12 02:16:23;;;;;;;5.10;2.87;;;;;;;;;;5056384;28;20341;-81
2023/05/12 02:18:48;;;;;;;3.47;2.63;;;;;;;;;;5039654;28;20380;-79
2023/05/12 02:21:13;;;;;;;5.32;2.85;;;;;;;;;;5055154;28;20091;-82
2023/05/12 02:23:38;;;;;;;3.60;2.53;;;;;;;;;;5055065;28;20029;-78
2023/05/12 02:26:04;;;;;;;3.08;2.55;;;;;;;;;;5055277;28;20260;-80
2023/05/12 02:28:29;;;;;;;5.35;2.85;;;;;;;;;;5055076;28;20123;-80
2023/05/12 02:30:54;;;;;;;4.32;2.95;;;;;;;;;;5055234;28;20017;-79
2023/05/12 02:33:21;;;;;;;9.47;3.00;;;;;;;;;;5055188;28;20503;-80
2023/05/12 02:35:47;;;;;;;4.75;2.90;;;;;;;;;;5055440;28;20253;-80
2023/05/12 02:38:12;;;;;;;6.05;3.17;;;;;;;;;;5055605;28;20036;-82
2023/05/12 02:40:38;;;;;;;5.82;3.00;;;;;;;;;;5055548;28;20101;-82
2023/05/12 02:43:03;;;;;;;5.60;2.90;;;;;;;;;;5055556;28;20032;-82
2023/05/12 02:45:29;;;;;;;3.60;2.80;;;;;;;;;;5055809;28;20362;-80
2023/05/12 02:47:54;;;;;;;5.28;2.88;;;;;;;;;;5037015;28;20025;-81
2023/05/12 02:50:20;;;;;;;3.42;2.70;;;;;;;;;;5055714;28;20079;-79
2023/05/12 02:52:46;;;;;;;4.65;3.03;;;;;;;;;;5037357;28;20033;-81
2023/05/12 02:55:11;;;;;;;6.55;2.85;;;;;;;;;;5055310;28;20033;-81
2023/05/12 02:57:36;;;;;;;6.40;3.20;;;;;;;;;;5054726;28;20033;-82
2023/05/12 03:00:04;;;;;;;4.57;2.80;;;;;;;;;;5054758;28;20797;-82
2023/05/12 03:02:30;;;;;;;6.40;3.03;;;;;;;;;;5055546;28;20112;-82
2023/05/12 03:04:55;;;;;;;4.35;2.97;;;;;;;;;;5055212;28;20056;-81
2023/05/12 03:07:20;;;;;;;6.37;3.07;;;;;;;;;;5037701;28;20032;-80
2023/05/12 03:09:46;;;;;;;4.10;2.72;;;;;;;;;;5054801;28;20265;-81
2023/05/12 03:12:12;;;;;;;4.35;2.80;;;;;;;;;;5055284;28;20025;-82
2023/05/12 03:14:37;;;;;;;9.70;3.20;;;;;;;;;;5055696;28;20032;-82
2023/05/12 03:17:02;;;;;;;6.20;2.83;;;;;;;;;;5054859;28;20262;-82
2023/05/12 03:19:27;;;;;;;7.30;3.00;;;;;;;;;;5055232;28;20258;-81
2023/05/12 03:21:53;;;;;;;6.60;3.00;;;;;;;;;;5058088;28;20029;-81
2023/05/12 03:24:18;;;;;;;4.43;2.90;;;;;;;;;;5058280;28;20598;-82
2023/05/12 03:26:43;;;;;;;3.50;2.75;;;;;;;;;;5058394;28;20480;-81
2023/05/12 03:29:09;;;;;;;9.10;3.67;;;;;;;;;;5058121;28;20476;-81
2023/05/12 03:31:34;;;;;;;9.20;3.47;;;;;;;;;;5058302;28;20613;-81
2023/05/12 03:33:59;;;;;;;7.07;4.00;;;;;;;;;;5057979;28;20613;-81
2023/05/12 03:36:24;;;;;;;7.30;4.00;;;;;;;;;;5057981;28;20284;-80
2023/05/12 03:38:50;;;;;;;6.27;3.73;;;;;;;;;;5039692;28;20068;-82
2023/05/12 03:41:15;;;;;;;5.30;3.30;;;;;;;;;;5057637;28;20289;-83
2023/05/12 03:43:41;;;;;;;6.13;3.33;;;;;;;;;;5057693;28;20262;-83
2023/05/12 03:46:06;;;;;;;6.63;3.00;;;;;;;;;;5039841;28;20029;-82
2023/05/12 03:48:31;;;;;;;4.57;3.10;;;;;;;;;;5058834;28;20031;-81
2023/05/12 03:50:56;;;;;;;7.25;3.10;;;;;;;;;;5039820;28;20024;-81
2023/05/12 03:53:22;;;;;;;4.90;2.80;;;;;;;;;;5058213;28;20369;-82
2023/05/12 03:55:47;;;;;;;5.35;3.05;;;;;;;;;;5061424;28;20791;-82
2023/05/12 03:58:12;;;;;;;5.03;3.47;;;;;;;;;;5066938;28;20048;-82
2023/05/12 04:00:37;;;;;;;5.77;3.47;;;;;;;;;;5065345;28;20028;-80
2023/05/12 04:03:03;;;;;;;4.95;3.40;;;;;;;;;;5063107;28;20257;-81
2023/05/12 04:05:28;;;;;;;8.10;3.17;;;;;;;;;;5062938;28;20056;-83
2023/05/12 04:07:53;;;;;;;7.05;3.15;;;;;;;;;;5044533;28;20028;-81
2023/05/12 04:10:18;;;;;;;5.97;2.93;;;;;;;;;;5062046;28;20109;-82
2023/05/12 04:12:44;;;;;;;5.73;2.97;;;;;;;;;;5061607;28;20250;-80
2023/05/12 04:15:09;;;;;;;4.45;3.05;;;;;;;;;;5063826;28;20261;-82
2023/05/12 04:17:35;;;;;;;5.65;3.28;;;;;;;;;;5064089;28;20044;-83
2023/05/12 04:20:00;;;;;;;6.50;3.40;;;;;;;;;;5065570;28;20040;-80
2023/05/12 04:22:25;;;;;;;6.97;3.35;;;;;;;;;;5065940;28;20029;-83
2023/05/12 04:24:51;;;;;;;7.10;3.22;;;;;;;;;;5046888;28;20032;-84
2023/05/12 04:27:16;;;;;;;5.60;3.22;;;;;;;;;;5045991;28;20108;-84
2023/05/12 04:29:41;;;;;;;5.03;3.03;;;;;;;;;;5058383;28;20096;-84
2023/05/12 04:32:06;;;;;;;6.82;3.38;;;;;;;;;;5055853;28;20061;-83
2023/05/12 04:34:32;;;;;;;6.50;3.45;;;;;;;;;;5056912;28;20021;-83
2023/05/12 04:36:57;;;;;;;6.57;3.30;;;;;;;;;;5056998;28;20108;-84
2023/05/12 04:39:22;;;;;;;4.83;3.20;;;;;;;;;;5056493;28;20036;-82
2023/05/12 04:41:47;;;;;;;5.47;3.40;;;;;;;;;;5038574;28;20278;-84
2023/05/12 04:44:13;;;;;;;5.75;3.10;;;;;;;;;;5038602;28;20316;-83
2023/05/12 04:46:38;;;;;;;5.70;3.40;;;;;;;;;;5038419;28;20017;-84
2023/05/12 04:49:03;;;;;;;5.00;2.90;;;;;;;;;;5038184;28;20021;-84
2023/05/12 04:51:28;;;;;;;8.50;3.70;;;;;;;;;;5055837;28;20258;-84
2023/05/12 04:53:54;;;;;;;4.82;3.05;;;;;;;;;;5056159;28;20264;-83
2023/05/12 04:56:20;;;;;;;6.97;3.40;;;;;;;;;;5057052;28;20039;-85
2023/05/12 04:58:45;;;;;;;7.15;3.60;;;;;;;;;;5056315;28;20024;-84
2023/05/12 05:01:12;;;;;;;7.03;3.45;;;;;;;;;;5056425;28;20480;-84
2023/05/12 05:03:38;;;;;;;8.15;3.47;;;;;;;;;;5056194;28;20031;-83
2023/05/12 05:06:03;;;;;;;6.20;3.70;;;;;;;;;;5056370;28;20025;-82
2023/05/12 05:08:31;;;;;;;5.40;3.75;;;;;;;;;;5055314;28;20031;-81
2023/05/12 05:10:57;;;;;;;7.55;3.90;;;;;;;;;;5055366;28;20021;-82
2023/05/12 05:13:22;;;;;;;5.87;3.83;;;;;;;;;;5055732;28;20024;-81
2023/05/12 05:15:51;;;;;;;5.10;3.30;;;;;;;;;;5055641;28;20258;-82
2023/05/12 05:18:16;;;;;;;9.77;3.67;;;;;;;;;;5037095;28;20075;-82
2023/05/12 05:20:42;;;;;;;4.90;3.38;;;;;;;;;;5037439;28;20441;-83
2023/05/12 05:23:07;;;;;;;5.68;3.70;;;;;;;;;;5055271;28;20055;-82
2023/05/12 05:25:33;;;;;;;5.67;3.37;;;;;;;;;;5055348;28;20106;-83
2023/05/12 05:27:58;;;;;;;8.70;3.60;;;;;;;;;;5037660;28;20266;-80
2023/05/12 05:30:23;;;;;;;7.38;3.75;;;;;;;;;;5056571;28;20032;-81
2023/05/12 05:32:52;;;;;;;12.30;3.90;;;;;;;;;;5056213;28;20486;-81
2023/05/12 05:35:17;;;;;;;8.40;3.72;;;;;;;;;;5055898;28;20337;-79
2023/05/12 05:37:42;;;;;;;5.80;3.95;;;;;;;;;;5037775;28;20151;-81
2023/05/12 05:40:08;;;;;;;8.68;3.97;;;;;;;;;;5055728;28;20016;-81
2023/05/12 05:42:33;;;;;;;6.03;3.47;;;;;;;;;;5055449;28;20029;-81
2023/05/12 05:44:58;;;;;;;11.43;3.50;;;;;;;;;;5054798;28;20032;-82
2023/05/12 05:47:24;;;;;;;10.48;3.55;;;;;;;;;;5054916;28;20258;-82
2023/05/12 05:49:49;;;;;;;6.07;3.40;;;;;;;;;;5055693;28;20153;-82
2023/05/12 05:52:14;;;;;;;8.50;3.58;;;;;;;;;;5038058;28;20266;-81
2023/05/12 05:54:39;;;;;;;5.40;3.60;;;;;;;;;;5037564;28;20051;-82
2023/05/12 05:57:05;;;;;;;6.18;3.83;;;;;;;;;;5055493;28;20333;-82
2023/05/12 05:59:31;;;;;;;8.10;4.18;;;;;;;;;;5055718;28;20028;-81
2023/05/12 06:01:56;;;;;;;14.15;4.07;;;;;;;;;;5037099;28;20263;-81
2023/05/12 06:04:22;;;;;;;8.93;3.90;;;;;;;;;;5037696;28;20024;-81
2023/05/12 06:06:47;;;;;;;15.60;3.73;;;;;;;;;;5055588;28;20404;-83
2023/05/12 06:09:14;;;;;;;6.28;4.00;;;;;;;;;;5054870;28;20632;-82
2023/05/12 06:11:39;;;;;;;8.57;3.85;;;;;;;;;;5054793;28;20025;-80
2023/05/12 06:14:05;;;;;;;5.35;3.67;;;;;;;;;;5055002;28;20025;-82
2023/05/12 06:16:30;;;;;;;5.15;3.80;;;;;;;;;;5055014;28;20434;-82
2023/05/12 06:18:55;;;;;;;7.80;3.58;;;;;;;;;;5054975;28;20111;-82
2023/05/12 06:21:20;;;;;;;7.53;3.67;;;;;;;;;;5055058;28;20028;-82
2023/05/12 06:23:45;;;;;;;8.47;3.73;;;;;;;;;;5054880;28;20348;-81
2023/05/12 06:26:11;;;;;;;7.70;3.93;;;;;;;;;;5055161;28;20296;-81
2023/05/12 06:28:36;;;;;;;7.00;3.50;;;;;;;;;;5054791;28;20273;-80
2023/05/12 06:31:01;;;;;;;7.13;3.83;;;;;;;;;;5054890;28;20269;-81
2023/05/12 06:33:29;;;;;;;8.93;3.80;;;;;;;;;;5054940;28;20261;-83
2023/05/12 06:35:54;;;;;;;10.73;3.47;;;;;;;;;;5036993;28;20278;-82
2023/05/12 06:38:19;;;;;;;7.03;3.80;;;;;;;;;;5054447;28;20083;-82
2023/05/12 06:40:48;;;;;;;7.38;4.15;;;;;;;;;;5054551;28;20253;-83
2023/05/12 06:43:13;;;;;;;10.13;3.58;;;;;;;;;;5055294;28;20513;-81
2023/05/12 06:45:38;;;;;;;4.85;3.42;;;;;;;;;;5054823;28;20028;-82
2023/05/12 06:48:04;;;;;;;7.47;3.67;;;;;;;;;;5054647;28;20036;-81
2023/05/12 06:50:30;;;;;;;12.00;3.90;;;;;;;;;;5054992;28;20029;-81
2023/05/12 06:52:55;;;;;;;10.23;3.63;;;;;;;;;;5036949;28;20035;-81
2023/05/12 06:55:21;;;;;;;5.20;3.38;;;;;;;;;;5056034;28;20468;-82
2023/05/12 06:57:46;;;;;;;7.05;3.83;;;;;;;;;;5040520;28;20055;-80
2023/05/12 07:00:12;;;;;;;5.63;3.38;;;;;;;;;;5058338;28;20412;-80
2023/05/12 07:02:37;;;;;;;6.45;3.28;;;;;;;;;;5058834;28;20079;-82
2023/05/12 07:05:03;;;;;;;5.40;3.40;;;;;;;;;;5058846;28;20025;-81
2023/05/12 07:07:28;;;;;;;12.13;3.40;;;;;;;;;;5059316;28;20293;-83
2023/05/12 07:09:53;;;;;;;9.43;3.63;;;;;;;;;;5059588;28;20079;-85
2023/05/12 07:12:19;;;;;;;7.35;3.63;;;;;;;;;;5060331;28;20253;-84
2023/05/12 07:14:44;;;;;;;10.20;3.60;;;;;;;;;;5060551;28;20024;-83
2023/05/12 07:17:09;;;;;;;5.57;3.22;;;;;;;;;;5045111;28;20337;-83
2023/05/12 07:19:34;;;;;;;4.78;3.35;;;;;;;;;;5062929;28;20047;-83
2023/05/12 07:22:00;;;;;;;5.07;3.67;;;;;;;;;;5063051;28;20052;-83
2023/05/12 07:24:26;;;;;;;12.18;3.72;;;;;;;;;;5044953;28;20501;-82
2023/05/12 07:26:51;;;;;;;5.97;3.75;;;;;;;;;;5045713;28;20057;-83
2023/05/12 07:29:17;;;;;;;8.63;3.90;;;;;;;;;;5062811;28;20021;-83
2023/05/12 07:31:42;;;;;;;7.10;3.47;;;;;;;;;;5063693;28;20067;-83
2023/05/12 07:34:07;;;;;;;7.85;3.13;;;;;;;;;;5064965;28;20031;-84
2023/05/12 07:36:33;;;;;;;8.20;3.10;;;;;;;;;;5063548;28;20025;-83
2023/05/12 07:38:58;;;;;;;6.03;3.28;;;;;;;;;;5065342;28;20384;-84
2023/05/12 07:41:23;;;;;;;9.90;3.27;;;;;;;;;;5066067;28;20084;-83
2023/05/12 07:43:48;;;;;;;5.93;3.70;;;;;;;;;;5065984;28;20258;-83
2023/05/12 07:46:13;;;;;;;4.93;3.13;;;;;;;;;;5048752;28;20262;-83
2023/05/12 07:48:39;;;;;;;8.53;3.30;;;;;;;;;;5066751;28;20261;-83
2023/05/12 07:51:05;;;;;;;3.70;2.90;;;;;;;;;;5046505;28;20256;-84
2023/05/12 07:53:31;;;;;;;6.90;2.92;;;;;;;;;;5044515;28;20056;-83
2023/05/12 07:55:56;;;;;;;6.15;3.00;;;;;;;;;;5064018;28;20036;-85
2023/05/12 07:58:21;;;;;;;7.80;3.17;;;;;;;;;;5047081;28;20424;-84
2023/05/12 08:00:46;;;;;;;6.13;2.73;;;;;;;;;;5047907;28;20664;-84
2023/05/12 08:03:12;;;;;;;4.43;2.80;;;;;;;;;;5063580;28;20262;-84
2023/05/12 08:05:37;;;;;;;3.97;2.33;;;;;;;;;;5061273;28;20032;-85
2023/05/12 08:08:05;;;;;;;5.30;3.00;;;;;;;;;;5042977;28;20025;-83
2023/05/12 08:10:57;;;;;;;5.95;2.95;;;;;;;;;;5062191;28;20261;-85
2023/05/12 08:13:23;;;;;;;5.80;2.80;;;;;;;;;;5023447;28;20068;-83
2023/05/12 08:15:48;;;;;;;7.97;3.10;;;;;;;;;;5062107;28;20503;-83
2023/05/12 08:18:14;;;;;;;5.30;3.63;;;;;;;;;;5062079;28;20029;-84
2023/05/12 08:20:42;;;;;;;12.45;3.60;;;;;;;;;;5044050;28;20032;-85
2023/05/12 08:23:08;;;;;;;9.40;4.22;;;;;;;;;;5043601;28;20021;-84
2023/05/12 08:25:36;;;;;;;6.15;3.17;;;;;;;;;;5062861;28;20040;-84
2023/05/12 08:28:02;;;;;;;6.35;3.10;;;;;;;;;;5042816;28;20480;-85
2023/05/12 08:30:27;;;;;;;6.93;3.17;;;;;;;;;;5062747;28;20031;-82
2023/05/12 08:32:55;;;;;;;5.47;2.97;;;;;;;;;;5062988;28;20029;-83
2023/05/12 08:35:22;;;;;;;6.47;3.40;;;;;;;;;;5045384;28;20029;-83
2023/05/12 08:37:47;;;;;;;7.22;3.03;;;;;;;;;;5043808;28;20055;-83
2023/05/12 08:40:23;;;;;;;5.72;3.33;;;;;;;;;;5062917;28;20112;-83
2023/05/12 08:43:23;;;;;;;6.93;2.97;;;;;;;;;;5063120;28;20025;-84
2023/05/12 08:45:48;;;;;;;8.68;3.33;;;;;;;;;;5062548;28;20025;-85
2023/05/12 08:48:16;;;;;;;8.70;3.25;;;;;;;;;;5044186;28;20028;-84
2023/05/12 08:50:41;;;;;;;5.72;3.17;;;;;;;;;;5061861;28;20031;-85
2023/05/12 08:53:10;;;;;;;5.65;2.85;;;;;;;;;;5061859;28;20064;-83
2023/05/12 08:55:35;;;;;;;4.10;2.60;;;;;;;;;;5061551;28;20017;-84
2023/05/12 08:58:01;;;;;;;4.85;2.30;;;;;;;;;;5060626;28;20031;-83
2023/05/12 09:00:27;;;;;;;6.90;2.38;;;;;;;;;;5061634;28;20050;-83
2023/05/12 09:02:54;;;;;;;3.55;2.30;;;;;;;;;;5064794;28;20077;-83
2023/05/12 09:05:19;;;;;;;4.25;2.40;;;;;;;;;;5045753;28;20035;-84
2023/05/12 09:07:47;;;;;;;4.43;2.55;;;;;;;;;;5064630;28;20029;-84
2023/05/12 09:10:17;;;;;;;6.20;2.78;;;;;;;;;;5045636;28;20032;-84
2023/05/12 09:12:46;;;;;;;4.28;2.55;;;;;;;;;;5063447;28;20095;-84
2023/05/12 09:15:21;;;;;;;5.30;2.60;;;;;;;;;;5046662;28;20427;-85
2023/05/12 09:17:46;;;;;;;7.68;2.30;;;;;;;;;;5058637;28;20029;-79
2023/05/12 09:20:12;;;;;;;6.03;2.40;;;;;;;;;;5058797;28;20029;-79
2023/05/12 09:22:38;;;;;;;4.15;2.38;;;;;;;;;;5060002;28;20278;-79
2023/05/12 09:25:17;;;;;;;3.33;2.15;;;;;;;;;;5059624;28;20025;-78
2023/05/12 09:27:48;;;;;;;5.03;2.78;;;;;;;;;;5042052;28;20052;-79
2023/05/12 09:30:15;;;;;;;4.75;2.50;;;;;;;;;;5042762;28;20025;-79
2023/05/12 09:32:40;;;;;;;3.72;2.35;;;;;;;;;;5043495;28;20044;-79
2023/05/12 09:35:10;;;;;;;6.07;2.10;;;;;;;;;;5061147;28;20029;-78
2023/05/12 09:37:35;;;;;;;3.17;2.10;;;;;;;;;;5042486;28;20017;-79
2023/05/12 09:40:05;;;;;;;2.65;1.98;;;;;;;;;;5042632;28;20373;-79
2023/05/12 09:42:32;;;;;;;6.03;2.08;;;;;;;;;;5056999;28;20511;-78
2023/05/12 09:45:10;;;;;;;6.10;2.90;;;;;;;;;;5057418;28;20037;-78
2023/05/12 09:47:37;;;;;;;5.13;2.58;;;;;;;;;;5039528;28;20028;-78
2023/05/12 09:50:03;;;;;;;5.03;2.50;;;;;;;;;;5038635;28;20067;-78
2023/05/12 09:52:31;;;;;;;3.40;2.10;;;;;;;;;;5055697;28;20381;-78
2023/05/12 09:55:12;;;;;;;5.25;2.22;;;;;;;;;;5056617;28;20052;-78
2023/05/12 09:57:40;;;;;;;3.28;1.90;;;;;;;;;;5056959;28;20443;-79
2023/05/12 10:00:10;;;;;;;3.85;2.00;;;;;;;;;;5040289;28;20025;-78
2023/05/12 10:02:43;;;;;;;2.90;1.83;;;;;;;;;;5038804;28;20060;-78
2023/05/12 10:05:14;;;;;;;7.10;2.00;;;;;;;;;;5057141;28;20025;-78
2023/05/12 10:07:42;;;;;;;4.13;2.05;;;;;;;;;;5056626;28;20395;-77
2023/05/12 10:10:11;;;;;;;5.88;2.33;;;;;;;;;;5056055;28;20029;-78
2023/05/12 10:12:36;;;;;;;4.25;2.13;;;;;;;;;;5055335;28;20025;-77
2023/05/12 10:15:03;;;;;;;4.13;2.20;;;;;;;;;;5056307;28;20028;-75
2023/05/12 10:17:28;;;;;;;7.00;2.25;;;;;;;;;;5053387;28;20026;-71
2023/05/12 10:19:55;;;;;;;8.82;2.30;;;;;;;;;;5053170;28;20128;-71
2023/05/12 10:22:20;;;;;;;3.20;2.20;;;;;;;;;;5052799;28;20032;-71
2023/05/12 10:24:47;;;;;;;2.90;2.17;;;;;;;;;;5053327;28;20028;-71
2023/05/12 10:27:14;;;;;;;3.58;2.15;;;;;;;;;;5052926;28;20027;-72
2023/05/12 10:29:40;;;;;;;4.57;2.40;;;;;;;;;;5052561;28;20040;-72
2023/05/12 10:32:05;;;;;;;7.50;2.25;;;;;;;;;;5052828;28;20021;-73
2023/05/12 10:34:35;;;;;;;3.15;2.08;;;;;;;;;;5053190;28;20025;-72
2023/05/12 10:37:07;;;;;;;5.45;2.40;;;;;;;;;;5053592;28;20104;-71
2023/05/12 10:39:33;;;;;;;4.32;2.25;;;;;;;;;;5035284;28;20603;-72
2023/05/12 10:42:07;;;;;;;4.93;2.40;;;;;;;;;;5053618;28;20024;-72
2023/05/12 10:44:34;;;;;;;4.25;2.35;;;;;;;;;;5035312;28;20032;-72
2023/05/12 10:46:59;;;;;;;5.22;2.30;;;;;;;;;;5052937;28;20077;-72
2023/05/12 10:49:33;;;;;;;5.57;2.33;;;;;;;;;;5035216;28;20020;-72
2023/05/12 10:51:59;;;;;;;;;;;;;;;;;;5035644;28;20021;-72
2023/05/12 10:54:24;;;;;;;3.30;2.08;;;;;;;;;;5053208;28;20003;-72
2023/05/12 10:56:50;;;;;;;4.70;2.20;;;;;;;;;;5052920;28;20056;-72
2023/05/12 10:59:21;;;;;;;8.70;2.40;;;;;;;;;;5053168;28;20033;-73
2023/05/12 11:02:15;;;;;;;5.35;2.10;;;;;;;;;;5053527;28;20029;-72
2023/05/12 11:04:41;;;;;;;5.53;2.45;;;;;;;;;;5052668;28;20017;-72
2023/05/12 11:07:08;;;;;;;6.88;2.40;;;;;;;;;;5052755;28;20033;-72
2023/05/12 11:09:41;;;;;;;5.55;2.60;;;;;;;;;;5052725;28;20024;-73
2023/05/12 11:12:08;;;;;;;4.88;2.50;;;;;;;;;;5053149;28;20385;-76
2023/05/12 11:14:34;;;;;;;3.55;2.65;;;;;;;;;;5053574;28;20040;-77
2023/05/12 11:17:00;;;;;;;6.20;2.40;;;;;;;;;;5052922;28;20028;-77
2023/05/12 11:19:26;;;;;;;7.45;2.30;;;;;;;;;;5052509;28;20400;-76
2023/05/12 11:21:54;;;;;;;3.50;2.40;;;;;;;;;;5052737;28;20079;-76
2023/05/12 11:24:19;;;;;;;3.45;2.28;;;;;;;;;;5034700;28;20029;-76
2023/05/12 11:26:45;;;;;;;3.45;2.13;;;;;;;;;;5052822;28;20492;-80
2023/05/12 11:29:10;;;;;;;5.22;3.25;;;;;;;;;;5034754;28;20020;-76
2023/05/12 11:31:37;;;;;;;6.30;3.05;;;;;;;;;;5052788;28;20075;-76
2023/05/12 11:34:04;;;;;;;7.30;3.28;;;;;;;;;;5054220;28;20017;-78
2023/05/12 11:36:35;;;;;;;9.45;3.25;;;;;;;;;;5057149;28;20028;-78
2023/05/12 11:39:00;;;;;;;6.90;3.80;;;;;;;;;;5041910;28;20052;-78
2023/05/12 11:41:26;;;;;;;6.67;3.23;;;;;;;;;;5057783;28;20052;-77
2023/05/12 11:43:52;;;;;;;5.97;3.50;;;;;;;;;;5059872;28;20258;-78
2023/05/12 11:46:25;;;;;;;10.25;3.40;;;;;;;;;;5065035;28;20400;-78
2023/05/12 11:48:55;;;;;;;10.07;3.75;;;;;;;;;;5041457;28;20056;-78
2023/05/12 11:51:21;;;;;;;6.38;2.88;;;;;;;;;;5048033;28;20063;-78
2023/05/12 11:53:46;;;;;;;5.40;3.33;;;;;;;;;;5047915;28;20021;-78
2023/05/12 11:56:18;;;;;;;6.15;3.88;;;;;;;;;;5065681;28;20039;-78
2023/05/12 11:58:51;;;;;;;5.85;3.30;;;;;;;;;;5047161;28;20036;-78
2023/05/12 12:01:16;;;;;;;13.07;2.85;;;;;;;;;;5062050;28;20033;-78
2023/05/12 12:03:47;;;;;;;4.33;2.57;;;;;;;;;;5057934;28;20036;-78
2023/05/12 12:06:12;;;;;;;4.20;2.38;;;;;;;;;;5061650;28;20621;-78
2023/05/12 12:08:52;;;;;;;4.88;2.63;;;;;;;;;;5063713;28;20029;-78
2023/05/12 12:11:22;;;;;;;5.88;2.70;;;;;;;;;;5063935;28;20526;-77
2023/05/12 12:13:55;;;;;;;4.88;2.55;;;;;;;;;;5062303;28;20032;-78
2023/05/12 12:16:26;;;;;;;9.88;3.20;;;;;;;;;;5060242;28;20112;-77
2023/05/12 12:18:51;;;;;;;5.25;3.00;;;;;;;;;;5042577;28;20036;-77
2023/05/12 12:21:17;;;;;;;5.07;3.00;;;;;;;;;;5062581;28;20033;-78
2023/05/12 12:23:42;;;;;;;7.47;3.50;;;;;;;;;;5046460;28;20070;-79
2023/05/12 12:26:10;;;;;;;3.90;2.85;;;;;;;;;;5062508;28;20480;-77
2023/05/12 12:28:36;;;;;;;8.80;3.78;;;;;;;;;;5044607;28;20025;-78
2023/05/12 12:31:01;;;;;;;6.00;3.42;;;;;;;;;;5062596;28;20036;-78
2023/05/12 12:33:27;;;;;;;6.93;3.38;;;;;;;;;;5061824;28;20033;-77
2023/05/12 12:35:52;;;;;;;6.03;3.17;;;;;;;;;;5060344;28;20028;-78
2023/05/12 12:38:17;;;;;;;9.27;3.73;;;;;;;;;;5060940;28;20258;-79
2023/05/12 12:40:42;;;;;;;10.68;3.50;;;;;;;;;;5062713;28;20319;-79
2023/05/12 12:43:08;;;;;;;6.18;3.25;;;;;;;;;;5065348;28;20028;-79
2023/05/12 12:45:33;;;;;;;7.10;2.97;;;;;;;;;;5066408;28;20044;-78
2023/05/12 12:47:59;;;;;;;6.60;2.45;;;;;;;;;;5065645;28;20052;-78
2023/05/12 12:50:24;;;;;;;5.50;2.67;;;;;;;;;;5063011;28;20028;-73
2023/05/12 12:52:49;;;;;;;6.07;2.92;;;;;;;;;;5059625;28;20803;-74
2023/05/12 12:55:15;;;;;;;6.93;3.10;;;;;;;;;;5057855;28;20029;-74
2023/05/12 12:57:40;;;;;;;5.50;3.10;;;;;;;;;;5058607;28;20078;-74
2023/05/12 13:00:07;;;;;;;8.43;2.85;;;;;;;;;;5040287;28;20060;-74
2023/05/12 13:02:33;;;;;;;8.07;2.80;;;;;;;;;;5058742;28;20025;-75
2023/05/12 13:05:02;;;;;;;5.00;2.70;;;;;;;;;;5041129;28;20491;-75
2023/05/12 13:07:27;;;;;;;4.68;2.90;;;;;;;;;;5058483;28;20086;-75
2023/05/12 13:09:53;;;;;;;4.90;3.22;;;;;;;;;;5058039;28;20033;-75
2023/05/12 13:12:18;;;;;;;5.18;3.50;;;;;;;;;;5058690;28;20029;-74
2023/05/12 13:14:44;;;;;;;8.07;3.55;;;;;;;;;;5058304;28;20115;-74
2023/05/12 13:17:09;;;;;;;5.50;3.60;;;;;;;;;;5056995;28;20032;-74
2023/05/12 13:19:34;;;;;;;5.33;2.87;;;;;;;;;;5040451;28;20029;-74
2023/05/12 13:21:59;;;;;;;5.95;3.13;;;;;;;;;;5058661;28;20274;-74
2023/05/12 13:24:25;;;;;;;9.03;3.40;;;;;;;;;;5057777;28;20029;-75
2023/05/12 13:26:50;;;;;;;5.17;3.10;;;;;;;;;;5057719;28;20281;-74
2023/05/12 13:29:15;;;;;;;4.38;2.90;;;;;;;;;;5039265;28;20257;-74
2023/05/12 13:31:41;;;;;;;5.53;3.10;;;;;;;;;;5057954;28;20111;-75
2023/05/12 13:34:07;;;;;;;5.47;2.90;;;;;;;;;;5057697;28;20759;-74
2023/05/12 13:36:33;;;;;;;4.55;2.67;;;;;;;;;;5040143;28;20045;-74
2023/05/12 13:38:59;;;;;;;6.95;2.97;;;;;;;;;;5040059;28;20056;-73
2023/05/12 13:41:24;;;;;;;7.85;2.88;;;;;;;;;;5038918;28;20028;-74
2023/05/12 13:43:49;;;;;;;7.00;3.47;;;;;;;;;;5057546;28;20033;-74
2023/05/12 13:46:14;;;;;;;6.50;3.23;;;;;;;;;;5057033;28;20266;-74
2023/05/12 13:48:40;;;;;;;5.50;2.83;;;;;;;;;;5040556;28;20292;-75
2023/05/12 13:51:06;;;;;;;7.13;3.33;;;;;;;;;;5040757;28;20266;-75
2023/05/12 13:53:31;;;;;;;5.03;3.28;;;;;;;;;;5057888;28;20072;-75
2023/05/12 13:55:56;;;;;;;10.82;3.40;;;;;;;;;;5057094;28;20135;-74
2023/05/12 13:58:21;;;;;;;6.50;3.10;;;;;;;;;;5056956;28;20031;-74
2023/05/12 14:00:46;;;;;;;8.53;3.10;;;;;;;;;;5039020;28;20368;-72
2023/05/12 14:03:12;;;;;;;10.90;3.03;;;;;;;;;;5038467;28;20281;-74
2023/05/12 14:05:37;;;;;;;8.53;2.80;;;;;;;;;;5038425;28;20262;-74
2023/05/12 14:08:02;;;;;;;8.00;3.20;;;;;;;;;;5056827;28;20653;-74
2023/05/12 14:10:28;;;;;;;7.35;3.22;;;;;;;;;;5056675;28;20775;-75
2023/05/12 14:12:53;;;;;;;56.10;5.65;;;;;;;;;;5056957;28;20031;-75
2023/05/12 14:15:18;;;;;;;46.30;4.73;;;;;;;;;;5056199;28;20025;-73
2023/05/12 14:17:43;;;;;;;17.47;3.97;;;;;;;;;;5055830;28;20297;-73
2023/05/12 14:20:09;;;;;;;14.43;3.43;;;;;;;;;;5037578;28;20270;-73
2023/05/12 14:22:34;;;;;;;6.00;3.50;;;;;;;;;;5055615;28;20285;-74
2023/05/12 14:25:00;;;;;;;5.65;3.95;;;;;;;;;;5055791;28;20043;-73
2023/05/12 14:27:25;;;;;;;8.82;4.25;;;;;;;;;;5055667;28;20067;-74
2023/05/12 14:29:50;;;;;;;7.07;4.10;;;;;;;;;;5037148;28;20028;-74
2023/05/12 14:32:17;;;;;;;9.73;4.28;;;;;;;;;;5037467;28;20258;-73
2023/05/12 14:34:42;;;;;;;6.70;4.65;;;;;;;;;;5055763;28;20047;-75
2023/05/12 14:37:07;;;;;;;6.72;4.20;;;;;;;;;;5056035;28;20028;-74